sensor_id;sensor_type;location;lat;lon;timestamp;P1;durP1;ratioP1;P2;durP2;ratioP2
76818;SDS011;65772;51.096;17.006;2023-12-20T00:01:44;10.30;;;6.20;;
76818;SDS011;65772;51.096;17.006;2023-12-20T00:04:15;11.00;;;6.40;;
76818;SDS011;65772;51.096;17.006;2023-12-20T00:06:45;11.40;;;6.60;;
76818;SDS011;65772;51.096;17.006;2023-12-20T00:09:16;9.50;;;6.30;;
76818;SDS011;65772;51.096;17.006;2023-12-20T00:11:46;10.90;;;6.20;;
76818;SDS011;65772;51.096;17.006;2023-12-20T00:14:17;8.80;;;5.60;;
76818;SDS011;65772;51.096;17.006;2023-12-20T00:16:48;12.00;;;6.70;;
76818;SDS011;65772;51.096;17.006;2023-12-20T00:19:18;9.40;;;5.90;;
76818;SDS011;65772;51.096;17.006;2023-12-20T00:21:49;10.30;;;6.20;;
76818;SDS011;65772;51.096;17.006;2023-12-20T00:24:19;12.80;;;7.00;;
76818;SDS011;65772;51.096;17.006;2023-12-20T00:26:50;11.90;;;5.90;;
76818;SDS011;65772;51.096;17.006;2023-12-20T00:29:20;11.40;;;6.40;;
76818;SDS011;65772;51.096;17.006;2023-12-20T00:31:51;10.90;;;5.80;;
76818;SDS011;65772;51.096;17.006;2023-12-20T00:34:22;10.90;;;6.40;;
76818;SDS011;65772;51.096;17.006;2023-12-20T00:36:52;11.50;;;6.00;;
76818;SDS011;65772;51.096;17.006;2023-12-20T00:39:23;10.30;;;6.00;;
76818;SDS011;65772;51.096;17.006;2023-12-20T00:41:53;8.90;;;5.50;;
76818;SDS011;65772;51.096;17.006;2023-12-20T00:44:24;9.40;;;5.30;;
76818;SDS011;65772;51.096;17.006;2023-12-20T00:46:55;10.30;;;6.60;;
76818;SDS011;65772;51.096;17.006;2023-12-20T00:49:26;13.40;;;6.60;;
76818;SDS011;65772;51.096;17.006;2023-12-20T00:51:56;11.30;;;5.60;;
76818;SDS011;65772;51.096;17.006;2023-12-20T00:54:27;9.40;;;5.40;;
76818;SDS011;65772;51.096;17.006;2023-12-20T00:56:58;11.30;;;6.20;;
76818;SDS011;65772;51.096;17.006;2023-12-20T00:59:29;9.90;;;5.80;;
76818;SDS011;65772;51.096;17.006;2023-12-20T01:01:59;10.20;;;5.60;;
76818;SDS011;65772;51.096;17.006;2023-12-20T01:04:30;9.60;;;5.80;;
76818;SDS011;65772;51.096;17.006;2023-12-20T01:07:00;10.80;;;5.70;;
76818;SDS011;65772;51.096;17.006;2023-12-20T01:09:31;8.70;;;5.40;;
76818;SDS011;65772;51.096;17.006;2023-12-20T01:12:02;9.00;;;4.90;;
76818;SDS011;65772;51.096;17.006;2023-12-20T01:14:32;11.30;;;6.70;;
76818;SDS011;65772;51.096;17.006;2023-12-20T01:17:03;9.60;;;5.60;;
76818;SDS011;65772;51.096;17.006;2023-12-20T01:19:34;9.10;;;5.60;;
76818;SDS011;65772;51.096;17.006;2023-12-20T01:22:05;11.90;;;6.30;;
76818;SDS011;65772;51.096;17.006;2023-12-20T01:24:35;10.20;;;6.10;;
76818;SDS011;65772;51.096;17.006;2023-12-20T01:27:06;9.30;;;5.70;;
76818;SDS011;65772;51.096;17.006;2023-12-20T01:29:36;10.20;;;5.70;;
76818;SDS011;65772;51.096;17.006;2023-12-20T01:32:07;11.00;;;6.00;;
76818;SDS011;65772;51.096;17.006;2023-12-20T01:34:37;10.10;;;5.90;;
76818;SDS011;65772;51.096;17.006;2023-12-20T01:37:09;9.70;;;5.50;;
76818;SDS011;65772;51.096;17.006;2023-12-20T01:39:39;9.10;;;6.10;;
76818;SDS011;65772;51.096;17.006;2023-12-20T01:42:10;8.20;;;5.30;;
76818;SDS011;65772;51.096;17.006;2023-12-20T01:44:40;9.30;;;5.10;;
76818;SDS011;65772;51.096;17.006;2023-12-20T01:47:11;8.70;;;5.40;;
76818;SDS011;65772;51.096;17.006;2023-12-20T01:49:42;8.60;;;4.90;;
76818;SDS011;65772;51.096;17.006;2023-12-20T01:52:13;7.90;;;5.10;;
76818;SDS011;65772;51.096;17.006;2023-12-20T01:54:45;11.50;;;4.90;;
76818;SDS011;65772;51.096;17.006;2023-12-20T01:57:16;8.90;;;5.20;;
76818;SDS011;65772;51.096;17.006;2023-12-20T01:59:47;8.10;;;4.30;;
76818;SDS011;65772;51.096;17.006;2023-12-20T02:02:18;8.80;;;4.70;;
76818;SDS011;65772;51.096;17.006;2023-12-20T02:04:48;8.80;;;4.80;;
76818;SDS011;65772;51.096;17.006;2023-12-20T02:07:19;10.30;;;4.80;;
76818;SDS011;65772;51.096;17.006;2023-12-20T02:09:51;11.20;;;5.20;;
76818;SDS011;65772;51.096;17.006;2023-12-20T02:12:22;13.90;;;5.50;;
76818;SDS011;65772;51.096;17.006;2023-12-20T02:14:52;13.40;;;5.70;;
76818;SDS011;65772;51.096;17.006;2023-12-20T02:17:23;18.70;;;6.60;;
76818;SDS011;65772;51.096;17.006;2023-12-20T02:19:54;17.10;;;7.30;;
76818;SDS011;65772;51.096;17.006;2023-12-20T02:22:25;17.90;;;6.60;;
76818;SDS011;65772;51.096;17.006;2023-12-20T02:24:55;16.40;;;6.00;;
76818;SDS011;65772;51.096;17.006;2023-12-20T02:27:26;14.30;;;5.90;;
76818;SDS011;65772;51.096;17.006;2023-12-20T02:29:58;16.40;;;5.90;;
76818;SDS011;65772;51.096;17.006;2023-12-20T02:32:29;16.60;;;6.60;;
76818;SDS011;65772;51.096;17.006;2023-12-20T02:34:59;15.80;;;5.80;;
76818;SDS011;65772;51.096;17.006;2023-12-20T02:37:30;11.50;;;4.90;;
76818;SDS011;65772;51.096;17.006;2023-12-20T02:40:01;12.80;;;4.60;;
76818;SDS011;65772;51.096;17.006;2023-12-20T02:42:32;11.90;;;4.10;;
76818;SDS011;65772;51.096;17.006;2023-12-20T02:45:02;9.00;;;4.40;;
76818;SDS011;65772;51.096;17.006;2023-12-20T02:47:34;9.20;;;4.30;;
76818;SDS011;65772;51.096;17.006;2023-12-20T02:50:05;7.30;;;3.20;;
76818;SDS011;65772;51.096;17.006;2023-12-20T02:52:36;6.60;;;3.20;;
76818;SDS011;65772;51.096;17.006;2023-12-20T02:55:07;6.40;;;3.30;;
76818;SDS011;65772;51.096;17.006;2023-12-20T02:57:38;5.80;;;2.90;;
76818;SDS011;65772;51.096;17.006;2023-12-20T03:00:10;5.70;;;2.60;;
76818;SDS011;65772;51.096;17.006;2023-12-20T03:02:42;4.70;;;2.50;;
76818;SDS011;65772;51.096;17.006;2023-12-20T03:05:12;5.20;;;2.90;;
76818;SDS011;65772;51.096;17.006;2023-12-20T03:07:43;5.10;;;2.50;;
76818;SDS011;65772;51.096;17.006;2023-12-20T03:10:14;4.90;;;2.50;;
76818;SDS011;65772;51.096;17.006;2023-12-20T03:12:53;4.80;;;2.40;;
76818;SDS011;65772;51.096;17.006;2023-12-20T03:15:24;5.60;;;2.20;;
76818;SDS011;65772;51.096;17.006;2023-12-20T03:17:54;3.90;;;2.10;;
76818;SDS011;65772;51.096;17.006;2023-12-20T03:20:27;3.80;;;2.30;;
76818;SDS011;65772;51.096;17.006;2023-12-20T03:22:59;4.80;;;2.00;;
76818;SDS011;65772;51.096;17.006;2023-12-20T03:25:30;4.90;;;2.00;;
76818;SDS011;65772;51.096;17.006;2023-12-20T03:28:00;4.80;;;2.60;;
76818;SDS011;65772;51.096;17.006;2023-12-20T03:30:31;5.40;;;2.30;;
76818;SDS011;65772;51.096;17.006;2023-12-20T03:33:02;4.40;;;1.90;;
76818;SDS011;65772;51.096;17.006;2023-12-20T03:35:33;3.80;;;1.90;;
76818;SDS011;65772;51.096;17.006;2023-12-20T03:38:03;4.10;;;2.00;;
76818;SDS011;65772;51.096;17.006;2023-12-20T03:40:34;4.30;;;1.60;;
76818;SDS011;65772;51.096;17.006;2023-12-20T03:43:04;3.60;;;1.60;;
76818;SDS011;65772;51.096;17.006;2023-12-20T03:45:35;4.20;;;1.70;;
76818;SDS011;65772;51.096;17.006;2023-12-20T03:48:06;5.10;;;2.10;;
76818;SDS011;65772;51.096;17.006;2023-12-20T03:50:37;2.80;;;1.10;;
76818;SDS011;65772;51.096;17.006;2023-12-20T03:53:08;2.60;;;1.10;;
76818;SDS011;65772;51.096;17.006;2023-12-20T03:55:38;3.30;;;1.40;;
76818;SDS011;65772;51.096;17.006;2023-12-20T03:58:09;3.50;;;1.20;;
76818;SDS011;65772;51.096;17.006;2023-12-20T04:00:39;2.00;;;1.00;;
76818;SDS011;65772;51.096;17.006;2023-12-20T04:03:10;2.50;;;0.90;;
76818;SDS011;65772;51.096;17.006;2023-12-20T04:05:42;2.70;;;1.00;;
76818;SDS011;65772;51.096;17.006;2023-12-20T04:08:12;2.10;;;0.90;;
76818;SDS011;65772;51.096;17.006;2023-12-20T04:10:43;3.80;;;1.50;;
76818;SDS011;65772;51.096;17.006;2023-12-20T04:13:13;4.20;;;1.30;;
76818;SDS011;65772;51.096;17.006;2023-12-20T04:15:44;2.80;;;1.00;;
76818;SDS011;65772;51.096;17.006;2023-12-20T04:18:16;3.10;;;1.70;;
76818;SDS011;65772;51.096;17.006;2023-12-20T04:20:46;3.30;;;1.40;;
76818;SDS011;65772;51.096;17.006;2023-12-20T04:23:17;2.60;;;1.10;;
76818;SDS011;65772;51.096;17.006;2023-12-20T04:25:48;2.70;;;1.10;;
76818;SDS011;65772;51.096;17.006;2023-12-20T04:28:18;2.60;;;1.10;;
76818;SDS011;65772;51.096;17.006;2023-12-20T04:30:49;2.30;;;1.10;;
76818;SDS011;65772;51.096;17.006;2023-12-20T04:33:20;3.80;;;1.30;;
76818;SDS011;65772;51.096;17.006;2023-12-20T04:35:50;2.20;;;0.90;;
76818;SDS011;65772;51.096;17.006;2023-12-20T04:38:21;3.30;;;1.10;;
76818;SDS011;65772;51.096;17.006;2023-12-20T04:40:51;2.30;;;1.10;;
76818;SDS011;65772;51.096;17.006;2023-12-20T04:43:22;2.70;;;0.90;;
76818;SDS011;65772;51.096;17.006;2023-12-20T04:45:52;2.40;;;1.20;;
76818;SDS011;65772;51.096;17.006;2023-12-20T04:48:23;3.50;;;1.20;;
76818;SDS011;65772;51.096;17.006;2023-12-20T04:50:53;1.80;;;0.80;;
76818;SDS011;65772;51.096;17.006;2023-12-20T04:53:24;2.20;;;0.90;;
76818;SDS011;65772;51.096;17.006;2023-12-20T04:55:55;2.10;;;0.90;;
76818;SDS011;65772;51.096;17.006;2023-12-20T04:58:25;2.00;;;0.90;;
76818;SDS011;65772;51.096;17.006;2023-12-20T05:00:56;1.50;;;0.70;;
76818;SDS011;65772;51.096;17.006;2023-12-20T05:03:27;1.90;;;0.80;;
76818;SDS011;65772;51.096;17.006;2023-12-20T05:05:57;3.20;;;1.30;;
76818;SDS011;65772;51.096;17.006;2023-12-20T05:08:28;1.40;;;0.80;;
76818;SDS011;65772;51.096;17.006;2023-12-20T05:10:59;1.90;;;0.90;;
76818;SDS011;65772;51.096;17.006;2023-12-20T05:13:30;1.60;;;0.60;;
76818;SDS011;65772;51.096;17.006;2023-12-20T05:16:11;1.90;;;0.80;;
76818;SDS011;65772;51.096;17.006;2023-12-20T05:18:48;2.30;;;0.80;;
76818;SDS011;65772;51.096;17.006;2023-12-20T05:21:20;1.90;;;0.70;;
76818;SDS011;65772;51.096;17.006;2023-12-20T05:23:50;2.50;;;0.90;;
76818;SDS011;65772;51.096;17.006;2023-12-20T05:26:21;2.50;;;1.00;;
76818;SDS011;65772;51.096;17.006;2023-12-20T05:28:51;2.70;;;1.00;;
76818;SDS011;65772;51.096;17.006;2023-12-20T05:31:22;2.30;;;1.10;;
76818;SDS011;65772;51.096;17.006;2023-12-20T05:33:53;2.20;;;0.90;;
76818;SDS011;65772;51.096;17.006;2023-12-20T05:36:23;3.30;;;1.10;;
76818;SDS011;65772;51.096;17.006;2023-12-20T05:38:54;2.40;;;1.00;;
76818;SDS011;65772;51.096;17.006;2023-12-20T05:41:25;1.80;;;1.00;;
76818;SDS011;65772;51.096;17.006;2023-12-20T05:43:55;1.60;;;0.70;;
76818;SDS011;65772;51.096;17.006;2023-12-20T05:46:27;1.60;;;0.80;;
76818;SDS011;65772;51.096;17.006;2023-12-20T05:48:57;2.50;;;1.00;;
76818;SDS011;65772;51.096;17.006;2023-12-20T05:51:28;2.20;;;1.00;;
76818;SDS011;65772;51.096;17.006;2023-12-20T05:53:58;3.50;;;1.10;;
76818;SDS011;65772;51.096;17.006;2023-12-20T05:56:29;2.30;;;1.10;;
76818;SDS011;65772;51.096;17.006;2023-12-20T05:58:59;2.80;;;1.10;;
76818;SDS011;65772;51.096;17.006;2023-12-20T06:01:30;2.30;;;1.00;;
76818;SDS011;65772;51.096;17.006;2023-12-20T06:04:00;2.40;;;1.10;;
76818;SDS011;65772;51.096;17.006;2023-12-20T06:06:32;2.30;;;1.20;;
76818;SDS011;65772;51.096;17.006;2023-12-20T06:09:03;2.30;;;1.10;;
76818;SDS011;65772;51.096;17.006;2023-12-20T06:11:34;2.60;;;1.20;;
76818;SDS011;65772;51.096;17.006;2023-12-20T06:14:04;2.40;;;1.20;;
76818;SDS011;65772;51.096;17.006;2023-12-20T06:16:35;3.70;;;1.30;;
76818;SDS011;65772;51.096;17.006;2023-12-20T06:19:05;3.00;;;1.10;;
76818;SDS011;65772;51.096;17.006;2023-12-20T06:21:36;2.60;;;1.00;;
76818;SDS011;65772;51.096;17.006;2023-12-20T06:24:10;4.50;;;1.20;;
76818;SDS011;65772;51.096;17.006;2023-12-20T06:26:40;2.70;;;1.20;;
76818;SDS011;65772;51.096;17.006;2023-12-20T06:29:11;4.20;;;1.30;;
76818;SDS011;65772;51.096;17.006;2023-12-20T06:31:42;3.00;;;1.40;;
76818;SDS011;65772;51.096;17.006;2023-12-20T06:34:13;2.30;;;1.10;;
76818;SDS011;65772;51.096;17.006;2023-12-20T06:36:44;2.40;;;1.10;;
76818;SDS011;65772;51.096;17.006;2023-12-20T06:39:14;3.10;;;1.30;;
76818;SDS011;65772;51.096;17.006;2023-12-20T06:41:45;2.80;;;1.20;;
76818;SDS011;65772;51.096;17.006;2023-12-20T06:44:15;3.80;;;1.30;;
76818;SDS011;65772;51.096;17.006;2023-12-20T06:46:46;2.60;;;1.10;;
76818;SDS011;65772;51.096;17.006;2023-12-20T06:49:16;1.90;;;0.80;;
76818;SDS011;65772;51.096;17.006;2023-12-20T06:51:47;3.40;;;1.00;;
76818;SDS011;65772;51.096;17.006;2023-12-20T06:54:18;2.50;;;1.00;;
76818;SDS011;65772;51.096;17.006;2023-12-20T06:56:48;3.20;;;1.20;;
76818;SDS011;65772;51.096;17.006;2023-12-20T06:59:18;2.30;;;0.90;;
76818;SDS011;65772;51.096;17.006;2023-12-20T07:01:49;2.30;;;1.20;;
76818;SDS011;65772;51.096;17.006;2023-12-20T07:04:20;2.40;;;1.10;;
76818;SDS011;65772;51.096;17.006;2023-12-20T07:06:51;3.80;;;1.10;;
76818;SDS011;65772;51.096;17.006;2023-12-20T07:09:25;2.60;;;1.10;;
76818;SDS011;65772;51.096;17.006;2023-12-20T07:11:56;3.90;;;1.30;;
76818;SDS011;65772;51.096;17.006;2023-12-20T07:14:27;3.40;;;0.80;;
76818;SDS011;65772;51.096;17.006;2023-12-20T07:16:57;2.80;;;1.00;;
76818;SDS011;65772;51.096;17.006;2023-12-20T07:19:28;2.00;;;0.90;;
76818;SDS011;65772;51.096;17.006;2023-12-20T07:21:58;3.30;;;1.10;;
76818;SDS011;65772;51.096;17.006;2023-12-20T07:24:29;2.70;;;1.00;;
76818;SDS011;65772;51.096;17.006;2023-12-20T07:27:00;1.70;;;0.80;;
76818;SDS011;65772;51.096;17.006;2023-12-20T07:29:31;2.90;;;1.00;;
76818;SDS011;65772;51.096;17.006;2023-12-20T07:32:01;2.30;;;0.90;;
76818;SDS011;65772;51.096;17.006;2023-12-20T07:34:32;2.30;;;0.90;;
76818;SDS011;65772;51.096;17.006;2023-12-20T07:37:04;3.00;;;1.00;;
76818;SDS011;65772;51.096;17.006;2023-12-20T07:39:39;1.50;;;0.80;;
76818;SDS011;65772;51.096;17.006;2023-12-20T07:42:10;3.20;;;1.10;;
76818;SDS011;65772;51.096;17.006;2023-12-20T07:44:40;2.20;;;1.00;;
76818;SDS011;65772;51.096;17.006;2023-12-20T07:47:11;2.70;;;1.10;;
76818;SDS011;65772;51.096;17.006;2023-12-20T07:49:44;3.10;;;0.90;;
76818;SDS011;65772;51.096;17.006;2023-12-20T07:52:15;2.90;;;1.00;;
76818;SDS011;65772;51.096;17.006;2023-12-20T07:54:46;2.30;;;0.90;;
76818;SDS011;65772;51.096;17.006;2023-12-20T07:57:16;4.00;;;1.10;;
76818;SDS011;65772;51.096;17.006;2023-12-20T07:59:47;1.90;;;0.90;;
76818;SDS011;65772;51.096;17.006;2023-12-20T08:02:17;3.10;;;0.90;;
76818;SDS011;65772;51.096;17.006;2023-12-20T08:04:48;1.90;;;0.80;;
76818;SDS011;65772;51.096;17.006;2023-12-20T08:07:18;2.90;;;0.90;;
76818;SDS011;65772;51.096;17.006;2023-12-20T08:09:49;2.20;;;0.80;;
76818;SDS011;65772;51.096;17.006;2023-12-20T08:12:20;2.30;;;0.90;;
76818;SDS011;65772;51.096;17.006;2023-12-20T08:14:51;1.80;;;0.80;;
76818;SDS011;65772;51.096;17.006;2023-12-20T08:17:21;2.00;;;0.80;;
76818;SDS011;65772;51.096;17.006;2023-12-20T08:19:52;1.60;;;0.80;;
76818;SDS011;65772;51.096;17.006;2023-12-20T08:22:23;1.50;;;0.80;;
76818;SDS011;65772;51.096;17.006;2023-12-20T08:24:53;2.70;;;0.90;;
76818;SDS011;65772;51.096;17.006;2023-12-20T08:27:24;2.00;;;0.80;;
76818;SDS011;65772;51.096;17.006;2023-12-20T08:29:54;3.70;;;1.10;;
76818;SDS011;65772;51.096;17.006;2023-12-20T08:32:26;2.60;;;1.00;;
76818;SDS011;65772;51.096;17.006;2023-12-20T08:34:57;3.30;;;1.00;;
76818;SDS011;65772;51.096;17.006;2023-12-20T08:37:27;2.50;;;1.00;;
76818;SDS011;65772;51.096;17.006;2023-12-20T08:39:58;2.80;;;0.80;;
76818;SDS011;65772;51.096;17.006;2023-12-20T08:42:29;2.30;;;1.10;;
76818;SDS011;65772;51.096;17.006;2023-12-20T08:44:59;2.60;;;1.00;;
76818;SDS011;65772;51.096;17.006;2023-12-20T08:47:32;3.20;;;1.60;;
76818;SDS011;65772;51.096;17.006;2023-12-20T08:50:03;2.00;;;0.80;;
76818;SDS011;65772;51.096;17.006;2023-12-20T08:52:34;3.40;;;1.10;;
76818;SDS011;65772;51.096;17.006;2023-12-20T08:55:06;3.60;;;1.10;;
76818;SDS011;65772;51.096;17.006;2023-12-20T08:57:38;2.20;;;1.00;;
76818;SDS011;65772;51.096;17.006;2023-12-20T09:00:09;3.00;;;1.20;;
76818;SDS011;65772;51.096;17.006;2023-12-20T09:02:42;2.00;;;0.90;;
76818;SDS011;65772;51.096;17.006;2023-12-20T09:05:12;2.40;;;1.10;;
76818;SDS011;65772;51.096;17.006;2023-12-20T09:07:43;3.10;;;1.20;;
76818;SDS011;65772;51.096;17.006;2023-12-20T09:10:14;2.10;;;1.00;;
76818;SDS011;65772;51.096;17.006;2023-12-20T09:12:50;2.70;;;1.00;;
76818;SDS011;65772;51.096;17.006;2023-12-20T09:15:25;4.20;;;1.20;;
76818;SDS011;65772;51.096;17.006;2023-12-20T09:18:03;2.70;;;1.20;;
76818;SDS011;65772;51.096;17.006;2023-12-20T09:20:34;2.10;;;0.90;;
76818;SDS011;65772;51.096;17.006;2023-12-20T09:23:09;3.30;;;1.30;;
76818;SDS011;65772;51.096;17.006;2023-12-20T09:25:39;2.50;;;1.20;;
76818;SDS011;65772;51.096;17.006;2023-12-20T09:28:10;4.30;;;1.20;;
76818;SDS011;65772;51.096;17.006;2023-12-20T09:30:40;2.40;;;1.00;;
76818;SDS011;65772;51.096;17.006;2023-12-20T09:33:13;2.60;;;1.00;;
76818;SDS011;65772;51.096;17.006;2023-12-20T09:35:45;2.20;;;0.90;;
76818;SDS011;65772;51.096;17.006;2023-12-20T09:38:16;2.70;;;1.00;;
76818;SDS011;65772;51.096;17.006;2023-12-20T09:40:46;2.60;;;1.20;;
76818;SDS011;65772;51.096;17.006;2023-12-20T09:43:18;2.50;;;1.20;;
76818;SDS011;65772;51.096;17.006;2023-12-20T09:45:53;1.90;;;1.10;;
76818;SDS011;65772;51.096;17.006;2023-12-20T09:48:30;2.10;;;0.90;;
76818;SDS011;65772;51.096;17.006;2023-12-20T09:51:01;3.20;;;1.30;;
76818;SDS011;65772;51.096;17.006;2023-12-20T09:53:32;3.90;;;1.10;;
76818;SDS011;65772;51.096;17.006;2023-12-20T09:56:05;2.40;;;1.10;;
76818;SDS011;65772;51.096;17.006;2023-12-20T09:58:37;2.10;;;1.10;;
76818;SDS011;65772;51.096;17.006;2023-12-20T10:01:08;2.50;;;1.10;;
76818;SDS011;65772;51.096;17.006;2023-12-20T10:03:39;4.00;;;1.60;;
76818;SDS011;65772;51.096;17.006;2023-12-20T10:06:11;3.50;;;1.30;;
76818;SDS011;65772;51.096;17.006;2023-12-20T10:08:42;3.00;;;1.30;;
76818;SDS011;65772;51.096;17.006;2023-12-20T10:11:13;3.70;;;1.30;;
76818;SDS011;65772;51.096;17.006;2023-12-20T10:13:43;3.60;;;1.60;;
76818;SDS011;65772;51.096;17.006;2023-12-20T10:18:46;4.00;;;1.30;;
76818;SDS011;65772;51.096;17.006;2023-12-20T10:21:17;3.20;;;1.40;;
76818;SDS011;65772;51.096;17.006;2023-12-20T10:23:48;4.30;;;1.40;;
76818;SDS011;65772;51.096;17.006;2023-12-20T10:26:20;3.30;;;1.20;;
76818;SDS011;65772;51.096;17.006;2023-12-20T10:28:53;3.50;;;1.30;;
76818;SDS011;65772;51.096;17.006;2023-12-20T10:31:29;3.10;;;1.30;;
76818;SDS011;65772;51.096;17.006;2023-12-20T10:34:00;2.30;;;1.10;;
76818;SDS011;65772;51.096;17.006;2023-12-20T10:36:32;4.60;;;1.30;;
76818;SDS011;65772;51.096;17.006;2023-12-20T10:39:04;3.70;;;1.30;;
76818;SDS011;65772;51.096;17.006;2023-12-20T10:41:39;2.50;;;1.20;;
76818;SDS011;65772;51.096;17.006;2023-12-20T10:44:10;4.50;;;1.70;;
76818;SDS011;65772;51.096;17.006;2023-12-20T10:46:42;3.30;;;1.50;;
76818;SDS011;65772;51.096;17.006;2023-12-20T10:49:19;4.10;;;1.50;;
76818;SDS011;65772;51.096;17.006;2023-12-20T10:51:50;4.40;;;1.50;;
76818;SDS011;65772;51.096;17.006;2023-12-20T10:54:25;5.30;;;1.80;;
76818;SDS011;65772;51.096;17.006;2023-12-20T10:56:55;4.00;;;1.70;;
76818;SDS011;65772;51.096;17.006;2023-12-20T10:59:28;4.20;;;1.70;;
76818;SDS011;65772;51.096;17.006;2023-12-20T11:02:02;4.50;;;1.80;;
76818;SDS011;65772;51.096;17.006;2023-12-20T11:04:39;3.80;;;1.50;;
76818;SDS011;65772;51.096;17.006;2023-12-20T11:07:21;4.70;;;1.60;;
76818;SDS011;65772;51.096;17.006;2023-12-20T11:09:58;3.80;;;1.60;;
76818;SDS011;65772;51.096;17.006;2023-12-20T11:12:39;3.90;;;1.70;;
76818;SDS011;65772;51.096;17.006;2023-12-20T11:15:16;4.50;;;1.50;;
76818;SDS011;65772;51.096;17.006;2023-12-20T11:17:47;5.30;;;1.50;;
76818;SDS011;65772;51.096;17.006;2023-12-20T11:20:33;3.50;;;1.60;;
76818;SDS011;65772;51.096;17.006;2023-12-20T11:23:07;4.20;;;1.40;;
76818;SDS011;65772;51.096;17.006;2023-12-20T11:25:48;2.90;;;1.50;;
76818;SDS011;65772;51.096;17.006;2023-12-20T11:28:22;3.90;;;1.60;;
76818;SDS011;65772;51.096;17.006;2023-12-20T11:30:53;3.70;;;1.20;;
76818;SDS011;65772;51.096;17.006;2023-12-20T11:33:29;4.80;;;1.40;;
76818;SDS011;65772;51.096;17.006;2023-12-20T11:36:13;5.20;;;1.50;;
76818;SDS011;65772;51.096;17.006;2023-12-20T11:38:50;3.60;;;1.20;;
76818;SDS011;65772;51.096;17.006;2023-12-20T11:41:25;3.60;;;1.00;;
76818;SDS011;65772;51.096;17.006;2023-12-20T11:43:56;4.10;;;1.10;;
76818;SDS011;65772;51.096;17.006;2023-12-20T11:46:28;3.50;;;1.20;;
76818;SDS011;65772;51.096;17.006;2023-12-20T11:49:01;5.60;;;1.20;;
76818;SDS011;65772;51.096;17.006;2023-12-20T11:51:33;3.80;;;1.40;;
76818;SDS011;65772;51.096;17.006;2023-12-20T11:54:03;4.30;;;1.30;;
76818;SDS011;65772;51.096;17.006;2023-12-20T11:56:34;3.50;;;1.20;;
76818;SDS011;65772;51.096;17.006;2023-12-20T11:59:05;4.00;;;1.60;;
76818;SDS011;65772;51.096;17.006;2023-12-20T12:01:50;6.10;;;1.40;;
76818;SDS011;65772;51.096;17.006;2023-12-20T12:04:23;3.60;;;1.30;;
76818;SDS011;65772;51.096;17.006;2023-12-20T12:06:53;4.30;;;1.50;;
76818;SDS011;65772;51.096;17.006;2023-12-20T12:09:24;4.00;;;1.20;;
76818;SDS011;65772;51.096;17.006;2023-12-20T12:11:54;2.70;;;1.20;;
76818;SDS011;65772;51.096;17.006;2023-12-20T12:14:25;3.80;;;1.20;;
76818;SDS011;65772;51.096;17.006;2023-12-20T12:16:56;5.40;;;1.30;;
76818;SDS011;65772;51.096;17.006;2023-12-20T12:19:26;4.60;;;1.20;;
76818;SDS011;65772;51.096;17.006;2023-12-20T12:22:06;5.50;;;1.30;;
76818;SDS011;65772;51.096;17.006;2023-12-20T12:24:43;3.50;;;1.20;;
76818;SDS011;65772;51.096;17.006;2023-12-20T12:27:14;5.80;;;1.60;;
76818;SDS011;65772;51.096;17.006;2023-12-20T12:32:35;3.90;;;1.10;;
76818;SDS011;65772;51.096;17.006;2023-12-20T12:35:08;3.30;;;1.10;;
76818;SDS011;65772;51.096;17.006;2023-12-20T12:37:39;2.40;;;1.00;;
76818;SDS011;65772;51.096;17.006;2023-12-20T12:40:12;2.70;;;1.10;;
76818;SDS011;65772;51.096;17.006;2023-12-20T12:42:44;3.50;;;1.20;;
76818;SDS011;65772;51.096;17.006;2023-12-20T12:45:15;2.60;;;1.30;;
76818;SDS011;65772;51.096;17.006;2023-12-20T12:47:46;3.30;;;1.30;;
76818;SDS011;65772;51.096;17.006;2023-12-20T12:50:17;3.50;;;1.20;;
76818;SDS011;65772;51.096;17.006;2023-12-20T12:52:49;6.00;;;1.30;;
76818;SDS011;65772;51.096;17.006;2023-12-20T12:55:20;3.00;;;1.30;;
76818;SDS011;65772;51.096;17.006;2023-12-20T12:57:50;2.90;;;1.20;;
76818;SDS011;65772;51.096;17.006;2023-12-20T13:00:21;3.50;;;1.20;;
76818;SDS011;65772;51.096;17.006;2023-12-20T13:02:52;6.30;;;1.40;;
76818;SDS011;65772;51.096;17.006;2023-12-20T13:05:23;6.00;;;1.60;;
76818;SDS011;65772;51.096;17.006;2023-12-20T13:07:54;5.60;;;1.40;;
76818;SDS011;65772;51.096;17.006;2023-12-20T13:10:26;5.00;;;1.40;;
76818;SDS011;65772;51.096;17.006;2023-12-20T13:12:57;5.30;;;1.40;;
76818;SDS011;65772;51.096;17.006;2023-12-20T13:15:28;5.50;;;1.40;;
76818;SDS011;65772;51.096;17.006;2023-12-20T13:17:59;4.40;;;1.40;;
76818;SDS011;65772;51.096;17.006;2023-12-20T13:20:30;4.00;;;1.30;;
76818;SDS011;65772;51.096;17.006;2023-12-20T13:23:01;4.30;;;1.30;;
76818;SDS011;65772;51.096;17.006;2023-12-20T13:25:32;2.90;;;1.20;;
76818;SDS011;65772;51.096;17.006;2023-12-20T13:28:03;4.10;;;1.20;;
76818;SDS011;65772;51.096;17.006;2023-12-20T13:30:34;4.50;;;1.30;;
76818;SDS011;65772;51.096;17.006;2023-12-20T13:33:05;4.40;;;1.30;;
76818;SDS011;65772;51.096;17.006;2023-12-20T13:35:35;5.20;;;1.10;;
76818;SDS011;65772;51.096;17.006;2023-12-20T13:38:07;4.20;;;1.40;;
76818;SDS011;65772;51.096;17.006;2023-12-20T13:40:37;4.80;;;1.20;;
76818;SDS011;65772;51.096;17.006;2023-12-20T13:43:08;4.20;;;1.50;;
76818;SDS011;65772;51.096;17.006;2023-12-20T13:45:40;5.20;;;1.30;;
76818;SDS011;65772;51.096;17.006;2023-12-20T13:48:11;4.40;;;1.30;;
76818;SDS011;65772;51.096;17.006;2023-12-20T13:50:41;4.20;;;1.10;;
76818;SDS011;65772;51.096;17.006;2023-12-20T13:53:12;3.80;;;1.20;;
76818;SDS011;65772;51.096;17.006;2023-12-20T13:55:42;3.60;;;1.00;;
76818;SDS011;65772;51.096;17.006;2023-12-20T13:58:13;4.80;;;1.30;;
76818;SDS011;65772;51.096;17.006;2023-12-20T14:00:44;3.20;;;1.30;;
76818;SDS011;65772;51.096;17.006;2023-12-20T14:03:14;6.40;;;1.70;;
76818;SDS011;65772;51.096;17.006;2023-12-20T14:05:45;6.50;;;1.70;;
76818;SDS011;65772;51.096;17.006;2023-12-20T14:08:15;5.00;;;1.60;;
76818;SDS011;65772;51.096;17.006;2023-12-20T14:10:46;5.40;;;1.70;;
76818;SDS011;65772;51.096;17.006;2023-12-20T14:13:16;6.40;;;1.70;;
76818;SDS011;65772;51.096;17.006;2023-12-20T14:15:48;4.60;;;1.80;;
76818;SDS011;65772;51.096;17.006;2023-12-20T14:18:19;7.00;;;2.10;;
76818;SDS011;65772;51.096;17.006;2023-12-20T14:20:50;4.30;;;1.30;;
76818;SDS011;65772;51.096;17.006;2023-12-20T14:23:21;3.20;;;1.20;;
76818;SDS011;65772;51.096;17.006;2023-12-20T14:25:52;5.50;;;1.40;;
76818;SDS011;65772;51.096;17.006;2023-12-20T14:30:53;5.60;;;1.40;;
76818;SDS011;65772;51.096;17.006;2023-12-20T14:33:24;4.20;;;1.40;;
76818;SDS011;65772;51.096;17.006;2023-12-20T14:35:54;3.70;;;1.20;;
76818;SDS011;65772;51.096;17.006;2023-12-20T14:38:25;2.50;;;1.10;;
76818;SDS011;65772;51.096;17.006;2023-12-20T14:40:55;4.40;;;1.50;;
76818;SDS011;65772;51.096;17.006;2023-12-20T14:43:26;4.20;;;1.50;;
76818;SDS011;65772;51.096;17.006;2023-12-20T14:45:57;5.50;;;1.40;;
76818;SDS011;65772;51.096;17.006;2023-12-20T14:48:27;5.10;;;1.90;;
76818;SDS011;65772;51.096;17.006;2023-12-20T14:50:58;3.70;;;1.50;;
76818;SDS011;65772;51.096;17.006;2023-12-20T14:53:28;4.50;;;1.60;;
76818;SDS011;65772;51.096;17.006;2023-12-20T14:55:59;5.80;;;1.40;;
76818;SDS011;65772;51.096;17.006;2023-12-20T14:58:29;6.10;;;2.10;;
76818;SDS011;65772;51.096;17.006;2023-12-20T15:01:01;7.30;;;1.80;;
76818;SDS011;65772;51.096;17.006;2023-12-20T15:03:32;6.50;;;2.10;;
76818;SDS011;65772;51.096;17.006;2023-12-20T15:06:03;5.90;;;2.20;;